sensor_id;sensor_type;location;lat;lon;timestamp;P1;durP1;ratioP1;P2;durP2;ratioP2
46723;SDS011;32463;48.298;11.620;2024-03-23T00:56:16;5.40;;;2.97;;
46723;SDS011;32463;48.298;11.620;2024-03-23T00:58:42;6.35;;;2.92;;
46723;SDS011;32463;48.298;11.620;2024-03-23T01:03:34;5.82;;;3.00;;
46723;SDS011;32463;48.298;11.620;2024-03-23T01:06:00;5.78;;;2.97;;
46723;SDS011;32463;48.298;11.620;2024-03-23T01:08:27;5.25;;;2.83;;
46723;SDS011;32463;48.298;11.620;2024-03-23T01:10:56;6.97;;;3.33;;
46723;SDS011;32463;48.298;11.620;2024-03-23T01:13:27;6.47;;;3.10;;
46723;SDS011;32463;48.298;11.620;2024-03-23T01:15:53;7.13;;;3.10;;
46723;SDS011;32463;48.298;11.620;2024-03-23T01:18:21;4.38;;;2.85;;
46723;SDS011;32463;48.298;11.620;2024-03-23T01:20:47;6.40;;;3.13;;
46723;SDS011;32463;48.298;11.620;2024-03-23T01:23:14;5.90;;;3.15;;
46723;SDS011;32463;48.298;11.620;2024-03-23T01:25:40;7.57;;;3.53;;
46723;SDS011;32463;48.298;11.620;2024-03-23T01:28:07;6.07;;;3.33;;
46723;SDS011;32463;48.298;11.620;2024-03-23T01:30:34;7.07;;;3.75;;
46723;SDS011;32463;48.298;11.620;2024-03-23T01:33:02;12.45;;;5.38;;
46723;SDS011;32463;48.298;11.620;2024-03-23T01:37:54;6.32;;;2.65;;
46723;SDS011;32463;48.298;11.620;2024-03-23T01:40:20;6.88;;;2.17;;
46723;SDS011;32463;48.298;11.620;2024-03-23T01:43:02;4.88;;;2.30;;
46723;SDS011;32463;48.298;11.620;2024-03-23T01:45:32;8.05;;;2.85;;
46723;SDS011;32463;48.298;11.620;2024-03-23T01:48:00;6.70;;;1.92;;
46723;SDS011;32463;48.298;11.620;2024-03-23T01:50:26;4.10;;;2.22;;
46723;SDS011;32463;48.298;11.620;2024-03-23T01:52:53;4.47;;;2.30;;
46723;SDS011;32463;48.298;11.620;2024-03-23T01:55:19;3.67;;;1.92;;
46723;SDS011;32463;48.298;11.620;2024-03-23T01:57:46;5.35;;;2.10;;
46723;SDS011;32463;48.298;11.620;2024-03-23T02:00:12;3.33;;;1.70;;
46723;SDS011;32463;48.298;11.620;2024-03-23T02:02:43;2.95;;;1.77;;
46723;SDS011;32463;48.298;11.620;2024-03-23T02:05:11;3.63;;;1.90;;
46723;SDS011;32463;48.298;11.620;2024-03-23T02:07:39;4.60;;;1.98;;
46723;SDS011;32463;48.298;11.620;2024-03-23T02:10:08;4.60;;;2.00;;
46723;SDS011;32463;48.298;11.620;2024-03-23T02:12:38;6.90;;;2.00;;
46723;SDS011;32463;48.298;11.620;2024-03-23T02:15:03;3.63;;;1.90;;
46723;SDS011;32463;48.298;11.620;2024-03-23T02:17:30;4.20;;;1.80;;
46723;SDS011;32463;48.298;11.620;2024-03-23T02:19:58;3.42;;;2.13;;
46723;SDS011;32463;48.298;11.620;2024-03-23T02:22:34;2.63;;;1.48;;
46723;SDS011;32463;48.298;11.620;2024-03-23T02:25:04;3.20;;;1.73;;
46723;SDS011;32463;48.298;11.620;2024-03-23T02:27:31;3.22;;;1.90;;
46723;SDS011;32463;48.298;11.620;2024-03-23T02:29:57;5.57;;;2.22;;
46723;SDS011;32463;48.298;11.620;2024-03-23T02:32:23;3.50;;;1.88;;
46723;SDS011;32463;48.298;11.620;2024-03-23T02:34:49;4.93;;;1.90;;
46723;SDS011;32463;48.298;11.620;2024-03-23T02:37:15;5.32;;;2.20;;
46723;SDS011;32463;48.298;11.620;2024-03-23T02:39:41;4.38;;;2.00;;
46723;SDS011;32463;48.298;11.620;2024-03-23T02:42:08;3.95;;;1.70;;
46723;SDS011;32463;48.298;11.620;2024-03-23T02:44:33;3.85;;;1.75;;
46723;SDS011;32463;48.298;11.620;2024-03-23T02:47:00;3.45;;;1.50;;
46723;SDS011;32463;48.298;11.620;2024-03-23T02:51:53;3.30;;;1.60;;
46723;SDS011;32463;48.298;11.620;2024-03-23T02:54:18;4.47;;;1.88;;
46723;SDS011;32463;48.298;11.620;2024-03-23T02:56:45;3.28;;;1.83;;
46723;SDS011;32463;48.298;11.620;2024-03-23T02:59:10;4.38;;;1.90;;
46723;SDS011;32463;48.298;11.620;2024-03-23T03:01:37;3.75;;;1.85;;
46723;SDS011;32463;48.298;11.620;2024-03-23T03:04:02;3.10;;;1.60;;
46723;SDS011;32463;48.298;11.620;2024-03-23T03:06:30;4.93;;;1.48;;
46723;SDS011;32463;48.298;11.620;2024-03-23T03:08:56;3.28;;;1.50;;
46723;SDS011;32463;48.298;11.620;2024-03-23T03:11:22;5.63;;;1.80;;
46723;SDS011;32463;48.298;11.620;2024-03-23T03:13:48;5.18;;;1.90;;
46723;SDS011;32463;48.298;11.620;2024-03-23T03:16:15;3.75;;;1.70;;
46723;SDS011;32463;48.298;11.620;2024-03-23T03:18:40;4.28;;;1.77;;
46723;SDS011;32463;48.298;11.620;2024-03-23T03:21:07;5.97;;;2.10;;
46723;SDS011;32463;48.298;11.620;2024-03-23T03:23:38;3.88;;;2.10;;
46723;SDS011;32463;48.298;11.620;2024-03-23T03:26:05;4.68;;;2.17;;
46723;SDS011;32463;48.298;11.620;2024-03-23T03:28:32;4.80;;;1.77;;
46723;SDS011;32463;48.298;11.620;2024-03-23T03:30:59;5.78;;;2.67;;
46723;SDS011;32463;48.298;11.620;2024-03-23T03:35:53;5.82;;;1.90;;
46723;SDS011;32463;48.298;11.620;2024-03-23T03:38:19;4.70;;;2.17;;
46723;SDS011;32463;48.298;11.620;2024-03-23T03:40:46;3.50;;;1.80;;
46723;SDS011;32463;48.298;11.620;2024-03-23T03:43:11;3.72;;;1.45;;
46723;SDS011;32463;48.298;11.620;2024-03-23T03:45:38;3.88;;;1.70;;
46723;SDS011;32463;48.298;11.620;2024-03-23T03:48:03;3.65;;;1.70;;
46723;SDS011;32463;48.298;11.620;2024-03-23T03:50:30;4.18;;;1.80;;
46723;SDS011;32463;48.298;11.620;2024-03-23T03:52:56;2.95;;;1.50;;
46723;SDS011;32463;48.298;11.620;2024-03-23T03:55:22;5.28;;;1.77;;
46723;SDS011;32463;48.298;11.620;2024-03-23T03:57:48;3.72;;;1.88;;
46723;SDS011;32463;48.298;11.620;2024-03-23T04:00:14;4.13;;;1.80;;
46723;SDS011;32463;48.298;11.620;2024-03-23T04:02:40;3.72;;;1.80;;
46723;SDS011;32463;48.298;11.620;2024-03-23T04:05:07;4.25;;;1.98;;
46723;SDS011;32463;48.298;11.620;2024-03-23T04:07:33;4.18;;;2.08;;
46723;SDS011;32463;48.298;11.620;2024-03-23T04:10:00;4.53;;;1.80;;
46723;SDS011;32463;48.298;11.620;2024-03-23T04:12:25;5.25;;;1.60;;
46723;SDS011;32463;48.298;11.620;2024-03-23T04:14:52;4.30;;;1.75;;
46723;SDS011;32463;48.298;11.620;2024-03-23T04:19:44;4.53;;;1.70;;
46723;SDS011;32463;48.298;11.620;2024-03-23T04:24:36;5.07;;;1.70;;
46723;SDS011;32463;48.298;11.620;2024-03-23T04:29:28;4.30;;;1.95;;
46723;SDS011;32463;48.298;11.620;2024-03-23T04:31:53;3.83;;;1.58;;
46723;SDS011;32463;48.298;11.620;2024-03-23T04:34:20;3.35;;;1.52;;
46723;SDS011;32463;48.298;11.620;2024-03-23T04:36:47;3.38;;;1.70;;
46723;SDS011;32463;48.298;11.620;2024-03-23T04:39:14;5.68;;;1.67;;
46723;SDS011;32463;48.298;11.620;2024-03-23T04:41:40;4.30;;;1.75;;
46723;SDS011;32463;48.298;11.620;2024-03-23T04:46:32;3.28;;;1.40;;
46723;SDS011;32463;48.298;11.620;2024-03-23T04:49:00;2.53;;;1.40;;
46723;SDS011;32463;48.298;11.620;2024-03-23T04:51:26;2.67;;;1.15;;
46723;SDS011;32463;48.298;11.620;2024-03-23T04:56:18;4.03;;;1.55;;
46723;SDS011;32463;48.298;11.620;2024-03-23T04:58:45;3.92;;;1.38;;
46723;SDS011;32463;48.298;11.620;2024-03-23T05:03:37;2.60;;;1.35;;
46723;SDS011;32463;48.298;11.620;2024-03-23T05:08:30;2.40;;;1.50;;
46723;SDS011;32463;48.298;11.620;2024-03-23T05:13:22;4.00;;;1.52;;
46723;SDS011;32463;48.298;11.620;2024-03-23T05:18:21;2.72;;;1.50;;
46723;SDS011;32463;48.298;11.620;2024-03-23T05:20:47;2.83;;;1.38;;
46723;SDS011;32463;48.298;11.620;2024-03-23T05:23:13;4.82;;;1.63;;
46723;SDS011;32463;48.298;11.620;2024-03-23T05:28:05;3.83;;;1.38;;
46723;SDS011;32463;48.298;11.620;2024-03-23T05:30:31;4.05;;;1.58;;
46723;SDS011;32463;48.298;11.620;2024-03-23T05:32:58;2.53;;;1.45;;
46723;SDS011;32463;48.298;11.620;2024-03-23T05:35:24;4.30;;;1.60;;
46723;SDS011;32463;48.298;11.620;2024-03-23T05:37:51;2.38;;;1.35;;
46723;SDS011;32463;48.298;11.620;2024-03-23T05:42:42;4.47;;;1.60;;
46723;SDS011;32463;48.298;11.620;2024-03-23T05:47:35;2.30;;;1.00;;
46723;SDS011;32463;48.298;11.620;2024-03-23T05:52:27;3.92;;;1.45;;
46723;SDS011;32463;48.298;11.620;2024-03-23T05:57:19;2.00;;;1.30;;
46723;SDS011;32463;48.298;11.620;2024-03-23T05:59:46;2.70;;;1.33;;
46723;SDS011;32463;48.298;11.620;2024-03-23T06:02:12;2.50;;;1.40;;
46723;SDS011;32463;48.298;11.620;2024-03-23T06:07:04;4.55;;;1.42;;
46723;SDS011;32463;48.298;11.620;2024-03-23T06:09:31;2.53;;;1.45;;
46723;SDS011;32463;48.298;11.620;2024-03-23T06:11:58;2.70;;;1.50;;
46723;SDS011;32463;48.298;11.620;2024-03-23T06:16:50;4.93;;;1.60;;
46723;SDS011;32463;48.298;11.620;2024-03-23T06:21:43;5.03;;;1.42;;
46723;SDS011;32463;48.298;11.620;2024-03-23T06:24:10;2.28;;;1.15;;
46723;SDS011;32463;48.298;11.620;2024-03-23T06:26:38;2.72;;;1.30;;
46723;SDS011;32463;48.298;11.620;2024-03-23T06:31:31;2.60;;;1.40;;
46723;SDS011;32463;48.298;11.620;2024-03-23T06:33:57;2.42;;;1.42;;
46723;SDS011;32463;48.298;11.620;2024-03-23T06:36:23;3.58;;;1.42;;
46723;SDS011;32463;48.298;11.620;2024-03-23T06:38:49;4.00;;;1.20;;
46723;SDS011;32463;48.298;11.620;2024-03-23T06:41:15;4.78;;;1.50;;
46723;SDS011;32463;48.298;11.620;2024-03-23T06:43:42;3.88;;;1.30;;
46723;SDS011;32463;48.298;11.620;2024-03-23T06:46:09;5.00;;;1.73;;
46723;SDS011;32463;48.298;11.620;2024-03-23T06:48:35;2.33;;;1.42;;
46723;SDS011;32463;48.298;11.620;2024-03-23T06:51:01;2.83;;;1.38;;
46723;SDS011;32463;48.298;11.620;2024-03-23T06:53:27;3.15;;;1.65;;
46723;SDS011;32463;48.298;11.620;2024-03-23T06:55:54;1.77;;;1.20;;
46723;SDS011;32463;48.298;11.620;2024-03-23T06:58:21;4.35;;;1.45;;
46723;SDS011;32463;48.298;11.620;2024-03-23T07:00:48;4.15;;;1.35;;
46723;SDS011;32463;48.298;11.620;2024-03-23T07:03:14;3.10;;;1.20;;
46723;SDS011;32463;48.298;11.620;2024-03-23T07:05:41;3.25;;;1.40;;
46723;SDS011;32463;48.298;11.620;2024-03-23T07:08:07;3.28;;;1.25;;
46723;SDS011;32463;48.298;11.620;2024-03-23T07:10:34;3.47;;;1.60;;
46723;SDS011;32463;48.298;11.620;2024-03-23T07:13:00;4.50;;;1.15;;
46723;SDS011;32463;48.298;11.620;2024-03-23T07:15:27;3.17;;;1.15;;
46723;SDS011;32463;48.298;11.620;2024-03-23T07:17:52;4.60;;;1.20;;
46723;SDS011;32463;48.298;11.620;2024-03-23T07:20:19;2.35;;;1.27;;
46723;SDS011;32463;48.298;11.620;2024-03-23T07:22:45;2.30;;;1.20;;
46723;SDS011;32463;48.298;11.620;2024-03-23T07:25:12;4.07;;;1.95;;
46723;SDS011;32463;48.298;11.620;2024-03-23T07:27:38;5.05;;;1.70;;
46723;SDS011;32463;48.298;11.620;2024-03-23T07:30:05;6.20;;;1.75;;
46723;SDS011;32463;48.298;11.620;2024-03-23T07:32:31;5.53;;;1.90;;
46723;SDS011;32463;48.298;11.620;2024-03-23T07:34:57;3.53;;;1.50;;
46723;SDS011;32463;48.298;11.620;2024-03-23T07:37:23;6.18;;;1.80;;
46723;SDS011;32463;48.298;11.620;2024-03-23T07:39:50;9.10;;;1.88;;
46723;SDS011;32463;48.298;11.620;2024-03-23T07:42:16;6.18;;;2.17;;
46723;SDS011;32463;48.298;11.620;2024-03-23T07:44:42;3.85;;;1.80;;
46723;SDS011;32463;48.298;11.620;2024-03-23T07:47:08;4.32;;;1.92;;
46723;SDS011;32463;48.298;11.620;2024-03-23T07:49:34;3.13;;;1.90;;
46723;SDS011;32463;48.298;11.620;2024-03-23T07:52:00;6.20;;;1.92;;
46723;SDS011;32463;48.298;11.620;2024-03-23T07:54:26;5.85;;;1.90;;
46723;SDS011;32463;48.298;11.620;2024-03-23T07:56:52;4.25;;;2.03;;
46723;SDS011;32463;48.298;11.620;2024-03-23T07:59:19;5.00;;;1.88;;
46723;SDS011;32463;48.298;11.620;2024-03-23T08:01:45;4.65;;;2.05;;
46723;SDS011;32463;48.298;11.620;2024-03-23T08:06:37;3.90;;;1.80;;
46723;SDS011;32463;48.298;11.620;2024-03-23T08:11:30;4.72;;;1.83;;
46723;SDS011;32463;48.298;11.620;2024-03-23T08:13:56;4.88;;;2.90;;
46723;SDS011;32463;48.298;11.620;2024-03-23T08:16:24;5.70;;;3.15;;
46723;SDS011;32463;48.298;11.620;2024-03-23T08:21:20;6.97;;;3.30;;
46723;SDS011;32463;48.298;11.620;2024-03-23T08:23:45;6.40;;;3.60;;
46723;SDS011;32463;48.298;11.620;2024-03-23T08:26:13;6.13;;;3.60;;
46723;SDS011;32463;48.298;11.620;2024-03-23T08:28:40;7.35;;;3.50;;
46723;SDS011;32463;48.298;11.620;2024-03-23T08:31:08;5.40;;;2.72;;
46723;SDS011;32463;48.298;11.620;2024-03-23T08:33:35;6.60;;;2.63;;
46723;SDS011;32463;48.298;11.620;2024-03-23T08:36:03;7.50;;;3.10;;
46723;SDS011;32463;48.298;11.620;2024-03-23T08:38:30;7.22;;;3.30;;
46723;SDS011;32463;48.298;11.620;2024-03-23T08:45:50;6.97;;;2.72;;
46723;SDS011;32463;48.298;11.620;2024-03-23T08:48:17;6.07;;;2.70;;
46723;SDS011;32463;48.298;11.620;2024-03-23T08:50:45;6.10;;;2.90;;
46723;SDS011;32463;48.298;11.620;2024-03-23T08:53:11;4.95;;;2.75;;
46723;SDS011;32463;48.298;11.620;2024-03-23T08:55:37;4.95;;;2.63;;
46723;SDS011;32463;48.298;11.620;2024-03-23T08:58:03;8.13;;;3.22;;
46723;SDS011;32463;48.298;11.620;2024-03-23T09:00:30;6.78;;;3.63;;
46723;SDS011;32463;48.298;11.620;2024-03-23T09:02:55;5.90;;;2.75;;
46723;SDS011;32463;48.298;11.620;2024-03-23T09:05:22;7.28;;;3.10;;
46723;SDS011;32463;48.298;11.620;2024-03-23T09:07:49;6.32;;;2.97;;
46723;SDS011;32463;48.298;11.620;2024-03-23T09:10:15;7.32;;;3.03;;
46723;SDS011;32463;48.298;11.620;2024-03-23T09:12:41;5.47;;;2.92;;
46723;SDS011;32463;48.298;11.620;2024-03-23T09:15:07;5.80;;;3.13;;
46723;SDS011;32463;48.298;11.620;2024-03-23T09:17:33;9.55;;;3.53;;
46723;SDS011;32463;48.298;11.620;2024-03-23T09:19:59;6.38;;;3.20;;
46723;SDS011;32463;48.298;11.620;2024-03-23T09:22:25;7.05;;;3.72;;
46723;SDS011;32463;48.298;11.620;2024-03-23T09:24:52;7.80;;;4.13;;
46723;SDS011;32463;48.298;11.620;2024-03-23T09:27:17;6.43;;;3.15;;
46723;SDS011;32463;48.298;11.620;2024-03-23T09:29:44;6.10;;;3.00;;
46723;SDS011;32463;48.298;11.620;2024-03-23T09:32:10;7.07;;;2.97;;
46723;SDS011;32463;48.298;11.620;2024-03-23T09:34:36;7.88;;;3.30;;
46723;SDS011;32463;48.298;11.620;2024-03-23T09:39:28;6.07;;;2.80;;
46723;SDS011;32463;48.298;11.620;2024-03-23T09:41:57;6.18;;;2.80;;
46723;SDS011;32463;48.298;11.620;2024-03-23T09:44:24;4.07;;;1.90;;
46723;SDS011;32463;48.298;11.620;2024-03-23T09:46:51;3.58;;;1.70;;
46723;SDS011;32463;48.298;11.620;2024-03-23T09:49:18;3.88;;;1.70;;
46723;SDS011;32463;48.298;11.620;2024-03-23T09:51:44;2.45;;;1.10;;
46723;SDS011;32463;48.298;11.620;2024-03-23T09:54:10;2.75;;;1.40;;
46723;SDS011;32463;48.298;11.620;2024-03-23T09:56:36;2.70;;;1.23;;
46723;SDS011;32463;48.298;11.620;2024-03-23T09:59:02;3.67;;;1.30;;
46723;SDS011;32463;48.298;11.620;2024-03-23T10:01:31;3.08;;;0.95;;
46723;SDS011;32463;48.298;11.620;2024-03-23T10:03:58;0.90;;;0.70;;
46723;SDS011;32463;48.298;11.620;2024-03-23T10:06:23;1.25;;;0.75;;
46723;SDS011;32463;48.298;11.620;2024-03-23T10:08:51;0.95;;;0.70;;
46723;SDS011;32463;48.298;11.620;2024-03-23T10:11:18;2.08;;;1.00;;
46723;SDS011;32463;48.298;11.620;2024-03-23T10:13:46;1.23;;;0.90;;
46723;SDS011;32463;48.298;11.620;2024-03-23T10:16:12;2.03;;;1.10;;
46723;SDS011;32463;48.298;11.620;2024-03-23T10:18:46;1.33;;;0.55;;
46723;SDS011;32463;48.298;11.620;2024-03-23T10:21:14;1.45;;;0.82;;
46723;SDS011;32463;48.298;11.620;2024-03-23T10:23:41;1.23;;;0.60;;
46723;SDS011;32463;48.298;11.620;2024-03-23T10:28:59;0.55;;;0.43;;
46723;SDS011;32463;48.298;11.620;2024-03-23T10:31:30;1.60;;;0.77;;
46723;SDS011;32463;48.298;11.620;2024-03-23T10:33:57;0.88;;;0.60;;
46723;SDS011;32463;48.298;11.620;2024-03-23T10:38:51;1.02;;;0.60;;
46723;SDS011;32463;48.298;11.620;2024-03-23T10:43:47;0.50;;;0.40;;
46723;SDS011;32463;48.298;11.620;2024-03-23T10:46:13;1.25;;;0.63;;
46723;SDS011;32463;48.298;11.620;2024-03-23T10:48:41;1.38;;;0.40;;
46723;SDS011;32463;48.298;11.620;2024-03-23T10:51:08;0.40;;;0.40;;
46723;SDS011;32463;48.298;11.620;2024-03-23T10:53:36;1.52;;;0.50;;
46723;SDS011;32463;48.298;11.620;2024-03-23T10:56:02;0.75;;;0.60;;
46723;SDS011;32463;48.298;11.620;2024-03-23T10:58:31;0.75;;;0.57;;
46723;SDS011;32463;48.298;11.620;2024-03-23T11:01:02;0.80;;;0.77;;
46723;SDS011;32463;48.298;11.620;2024-03-23T11:05:55;0.80;;;0.50;;
46723;SDS011;32463;48.298;11.620;2024-03-23T11:13:47;0.73;;;0.40;;
46723;SDS011;32463;48.298;11.620;2024-03-23T11:18:48;1.45;;;0.73;;
46723;SDS011;32463;48.298;11.620;2024-03-23T11:24:19;0.75;;;0.60;;
46723;SDS011;32463;48.298;11.620;2024-03-23T11:26:46;0.98;;;0.90;;
46723;SDS011;32463;48.298;11.620;2024-03-23T11:29:14;2.50;;;0.85;;
46723;SDS011;32463;48.298;11.620;2024-03-23T11:31:52;2.30;;;0.93;;
46723;SDS011;32463;48.298;11.620;2024-03-23T11:34:19;0.95;;;0.80;;
46723;SDS011;32463;48.298;11.620;2024-03-23T11:36:45;0.68;;;0.60;;
46723;SDS011;32463;48.298;11.620;2024-03-23T11:41:55;2.45;;;1.00;;
46723;SDS011;32463;48.298;11.620;2024-03-23T11:44:23;1.60;;;1.05;;
46723;SDS011;32463;48.298;11.620;2024-03-23T11:46:50;0.88;;;0.75;;
46723;SDS011;32463;48.298;11.620;2024-03-23T11:51:51;4.15;;;1.20;;
46723;SDS011;32463;48.298;11.620;2024-03-23T11:54:23;3.08;;;1.10;;
46723;SDS011;32463;48.298;11.620;2024-03-23T11:57:03;3.00;;;1.10;;
46723;SDS011;32463;48.298;11.620;2024-03-23T12:02:00;1.48;;;0.90;;
46723;SDS011;32463;48.298;11.620;2024-03-23T12:04:27;2.85;;;1.00;;
46723;SDS011;32463;48.298;11.620;2024-03-23T12:09:38;3.75;;;1.20;;
46723;SDS011;32463;48.298;11.620;2024-03-23T12:14:42;5.70;;;1.27;;
46723;SDS011;32463;48.298;11.620;2024-03-23T12:17:11;4.82;;;1.17;;
46723;SDS011;32463;48.298;11.620;2024-03-23T12:19:38;2.42;;;1.10;;
46723;SDS011;32463;48.298;11.620;2024-03-23T12:22:05;4.93;;;1.33;;
46723;SDS011;32463;48.298;11.620;2024-03-23T12:24:32;4.47;;;1.40;;
46723;SDS011;32463;48.298;11.620;2024-03-23T12:27:00;3.72;;;1.40;;
46723;SDS011;32463;48.298;11.620;2024-03-23T12:29:34;3.72;;;1.35;;
46723;SDS011;32463;48.298;11.620;2024-03-23T12:32:01;1.80;;;1.20;;
46723;SDS011;32463;48.298;11.620;2024-03-23T12:34:28;8.38;;;1.55;;
46723;SDS011;32463;48.298;11.620;2024-03-23T12:36:56;5.95;;;1.40;;
46723;SDS011;32463;48.298;11.620;2024-03-23T12:41:48;5.78;;;1.92;;
46723;SDS011;32463;48.298;11.620;2024-03-23T12:44:15;2.97;;;1.30;;
46723;SDS011;32463;48.298;11.620;2024-03-23T12:46:42;5.13;;;1.30;;
46723;SDS011;32463;48.298;11.620;2024-03-23T12:51:34;3.45;;;1.88;;
46723;SDS011;32463;48.298;11.620;2024-03-23T12:56:26;3.20;;;1.60;;
46723;SDS011;32463;48.298;11.620;2024-03-23T12:58:53;4.57;;;1.25;;
46723;SDS011;32463;48.298;11.620;2024-03-23T13:01:20;5.00;;;1.75;;
46723;SDS011;32463;48.298;11.620;2024-03-23T13:06:13;6.38;;;1.95;;
46723;SDS011;32463;48.298;11.620;2024-03-23T13:11:07;4.43;;;1.45;;
46723;SDS011;32463;48.298;11.620;2024-03-23T13:13:33;2.95;;;1.52;;
46723;SDS011;32463;48.298;11.620;2024-03-23T13:16:00;3.90;;;1.58;;
46723;SDS011;32463;48.298;11.620;2024-03-23T13:18:27;3.60;;;1.50;;
46723;SDS011;32463;48.298;11.620;2024-03-23T13:20:55;8.38;;;3.42;;
46723;SDS011;32463;48.298;11.620;2024-03-23T13:23:20;5.57;;;1.73;;
46723;SDS011;32463;48.298;11.620;2024-03-23T13:25:55;4.80;;;1.88;;
46723;SDS011;32463;48.298;11.620;2024-03-23T13:28:21;4.97;;;1.85;;
46723;SDS011;32463;48.298;11.620;2024-03-23T13:30:52;3.38;;;1.65;;
46723;SDS011;32463;48.298;11.620;2024-03-23T13:33:21;6.43;;;1.70;;
46723;SDS011;32463;48.298;11.620;2024-03-23T13:38:20;7.00;;;2.15;;
46723;SDS011;32463;48.298;11.620;2024-03-23T13:43:23;5.82;;;1.80;;
46723;SDS011;32463;48.298;11.620;2024-03-23T13:45:53;3.78;;;1.60;;
46723;SDS011;32463;48.298;11.620;2024-03-23T13:48:22;3.83;;;1.63;;
46723;SDS011;32463;48.298;11.620;2024-03-23T13:51:01;4.57;;;2.40;;
46723;SDS011;32463;48.298;11.620;2024-03-23T13:53:29;6.70;;;1.95;;
46723;SDS011;32463;48.298;11.620;2024-03-23T13:55:55;3.85;;;1.73;;
46723;SDS011;32463;48.298;11.620;2024-03-23T13:58:21;3.53;;;1.98;;
46723;SDS011;32463;48.298;11.620;2024-03-23T14:00:48;5.60;;;2.35;;
46723;SDS011;32463;48.298;11.620;2024-03-23T14:03:15;6.40;;;2.35;;
46723;SDS011;32463;48.298;11.620;2024-03-23T14:05:40;6.70;;;2.83;;
46723;SDS011;32463;48.298;11.620;2024-03-23T14:08:08;4.70;;;1.75;;
46723;SDS011;32463;48.298;11.620;2024-03-23T14:10:36;4.18;;;2.38;;
46723;SDS011;32463;48.298;11.620;2024-03-23T14:13:03;7.22;;;2.80;;
46723;SDS011;32463;48.298;11.620;2024-03-23T14:15:28;5.05;;;2.05;;
46723;SDS011;32463;48.298;11.620;2024-03-23T14:17:56;4.32;;;1.98;;
46723;SDS011;32463;48.298;11.620;2024-03-23T14:20:22;4.97;;;2.00;;
46723;SDS011;32463;48.298;11.620;2024-03-23T14:22:49;4.90;;;2.20;;
46723;SDS011;32463;48.298;11.620;2024-03-23T14:25:15;3.72;;;1.85;;
46723;SDS011;32463;48.298;11.620;2024-03-23T14:27:45;4.50;;;1.70;;
46723;SDS011;32463;48.298;11.620;2024-03-23T14:30:11;6.15;;;2.10;;
46723;SDS011;32463;48.298;11.620;2024-03-23T14:32:39;5.32;;;1.60;;
46723;SDS011;32463;48.298;11.620;2024-03-23T14:35:05;4.60;;;2.13;;
46723;SDS011;32463;48.298;11.620;2024-03-23T14:37:32;4.55;;;1.63;;
46723;SDS011;32463;48.298;11.620;2024-03-23T14:39:58;5.00;;;1.67;;
46723;SDS011;32463;48.298;11.620;2024-03-23T14:42:25;3.83;;;1.35;;
46723;SDS011;32463;48.298;11.620;2024-03-23T14:44:51;2.67;;;1.35;;
46723;SDS011;32463;48.298;11.620;2024-03-23T14:47:18;3.58;;;1.35;;
46723;SDS011;32463;48.298;11.620;2024-03-23T14:52:13;2.35;;;1.25;;
46723;SDS011;32463;48.298;11.620;2024-03-23T14:54:38;2.45;;;1.20;;
46723;SDS011;32463;48.298;11.620;2024-03-23T14:57:06;5.07;;;2.15;;
46723;SDS011;32463;48.298;11.620;2024-03-23T14:59:32;4.72;;;1.70;;
46723;SDS011;32463;48.298;11.620;2024-03-23T15:01:58;3.80;;;1.02;;
46723;SDS011;32463;48.298;11.620;2024-03-23T15:04:24;4.38;;;1.20;;
46723;SDS011;32463;48.298;11.620;2024-03-23T15:06:51;4.90;;;1.30;;
46723;SDS011;32463;48.298;11.620;2024-03-23T15:09:16;3.50;;;1.13;;
46723;SDS011;32463;48.298;11.620;2024-03-23T15:11:43;3.25;;;1.45;;
46723;SDS011;32463;48.298;11.620;2024-03-23T15:14:08;6.05;;;1.40;;
46723;SDS011;32463;48.298;11.620;2024-03-23T15:16:36;3.53;;;1.48;;
46723;SDS011;32463;48.298;11.620;2024-03-23T15:19:02;4.97;;;1.40;;
46723;SDS011;32463;48.298;11.620;2024-03-23T15:21:31;6.40;;;1.92;;
46723;SDS011;32463;48.298;11.620;2024-03-23T15:23:56;3.35;;;1.33;;
46723;SDS011;32463;48.298;11.620;2024-03-23T15:26:23;3.17;;;1.27;;
46723;SDS011;32463;48.298;11.620;2024-03-23T15:28:49;7.03;;;1.40;;
46723;SDS011;32463;48.298;11.620;2024-03-23T15:31:35;4.28;;;1.20;;
46723;SDS011;32463;48.298;11.620;2024-03-23T15:34:00;2.72;;;1.20;;
46723;SDS011;32463;48.298;11.620;2024-03-23T15:36:27;3.42;;;1.50;;
46723;SDS011;32463;48.298;11.620;2024-03-23T15:38:52;3.05;;;1.27;;
46723;SDS011;32463;48.298;11.620;2024-03-23T15:41:19;4.45;;;1.20;;
46723;SDS011;32463;48.298;11.620;2024-03-23T15:43:45;2.25;;;1.15;;
46723;SDS011;32463;48.298;11.620;2024-03-23T15:46:11;7.90;;;1.52;;
46723;SDS011;32463;48.298;11.620;2024-03-23T15:48:39;7.30;;;1.40;;
46723;SDS011;32463;48.298;11.620;2024-03-23T15:51:11;2.53;;;1.00;;
46723;SDS011;32463;48.298;11.620;2024-03-23T15:53:36;5.97;;;2.30;;
46723;SDS011;32463;48.298;11.620;2024-03-23T15:56:03;2.03;;;0.90;;
46723;SDS011;32463;48.298;11.620;2024-03-23T15:58:30;6.53;;;1.23;;
46723;SDS011;32463;48.298;11.620;2024-03-23T16:00:58;2.75;;;1.25;;
46723;SDS011;32463;48.298;11.620;2024-03-23T16:03:25;2.78;;;1.23;;
46723;SDS011;32463;48.298;11.620;2024-03-23T16:06:02;2.33;;;1.02;;
46723;SDS011;32463;48.298;11.620;2024-03-23T16:08:29;2.13;;;1.20;;
46723;SDS011;32463;48.298;11.620;2024-03-23T16:11:00;5.70;;;1.25;;
46723;SDS011;32463;48.298;11.620;2024-03-23T16:13:27;4.05;;;1.10;;
46723;SDS011;32463;48.298;11.620;2024-03-23T16:15:54;5.07;;;1.20;;
46723;SDS011;32463;48.298;11.620;2024-03-23T16:18:25;6.93;;;2.25;;
46723;SDS011;32463;48.298;11.620;2024-03-23T16:20:53;4.75;;;1.48;;
46723;SDS011;32463;48.298;11.620;2024-03-23T16:23:18;7.47;;;1.20;;
46723;SDS011;32463;48.298;11.620;2024-03-23T16:25:48;4.78;;;1.00;;
46723;SDS011;32463;48.298;11.620;2024-03-23T16:28:24;6.05;;;1.90;;
46723;SDS011;32463;48.298;11.620;2024-03-23T16:33:26;5.07;;;1.40;;
46723;SDS011;32463;48.298;11.620;2024-03-23T16:38:22;5.20;;;1.30;;
46723;SDS011;32463;48.298;11.620;2024-03-23T16:40:55;7.05;;;1.50;;
46723;SDS011;32463;48.298;11.620;2024-03-23T16:43:26;4.85;;;1.30;;
46723;SDS011;32463;48.298;11.620;2024-03-23T16:45:57;3.05;;;1.38;;
46723;SDS011;32463;48.298;11.620;2024-03-23T16:48:24;1.45;;;1.02;;
46723;SDS011;32463;48.298;11.620;2024-03-23T16:50:51;3.92;;;1.17;;
46723;SDS011;32463;48.298;11.620;2024-03-23T16:55:44;4.90;;;1.73;;
46723;SDS011;32463;48.298;11.620;2024-03-23T16:58:09;4.97;;;2.17;;
46723;SDS011;32463;48.298;11.620;2024-03-23T17:00:36;2.45;;;1.20;;
46723;SDS011;32463;48.298;11.620;2024-03-23T17:03:05;4.65;;;1.83;;
46723;SDS011;32463;48.298;11.620;2024-03-23T17:05:36;6.80;;;1.60;;
46723;SDS011;32463;48.298;11.620;2024-03-23T17:08:03;4.28;;;1.30;;
46723;SDS011;32463;48.298;11.620;2024-03-23T17:10:29;3.65;;;1.90;;
46723;SDS011;32463;48.298;11.620;2024-03-23T17:12:55;4.28;;;1.85;;
46723;SDS011;32463;48.298;11.620;2024-03-23T17:15:22;6.03;;;2.75;;
46723;SDS011;32463;48.298;11.620;2024-03-23T17:17:48;7.82;;;1.92;;
46723;SDS011;32463;48.298;11.620;2024-03-23T17:20:14;4.97;;;2.22;;
46723;SDS011;32463;48.298;11.620;2024-03-23T17:22:40;4.30;;;1.20;;
46723;SDS011;32463;48.298;11.620;2024-03-23T17:25:07;4.00;;;1.40;;
46723;SDS011;32463;48.298;11.620;2024-03-23T17:27:33;3.22;;;1.48;;
46723;SDS011;32463;48.298;11.620;2024-03-23T17:30:00;2.78;;;1.00;;
46723;SDS011;32463;48.298;11.620;2024-03-23T17:32:27;4.80;;;1.38;;
46723;SDS011;32463;48.298;11.620;2024-03-23T17:34:54;2.85;;;0.82;;
46723;SDS011;32463;48.298;11.620;2024-03-23T17:37:19;2.47;;;1.00;;